createdAt,value
2024-02-24T00:01:50.329Z,100.00
2024-02-24T00:04:18.373Z,100.00
2024-02-24T00:06:46.937Z,100.00
2024-02-24T00:09:14.948Z,100.00
2024-02-24T00:11:43.308Z,100.00
2024-02-24T00:14:11.822Z,100.00
2024-02-24T00:16:40.507Z,100.00
2024-02-24T00:19:08.586Z,100.00
2024-02-24T00:21:36.535Z,100.00
2024-02-24T00:24:04.606Z,100.00
2024-02-24T00:26:33.071Z,100.00
2024-02-24T00:29:01.524Z,100.00
2024-02-24T00:31:29.468Z,100.00
2024-02-24T00:33:57.861Z,100.00
2024-02-24T00:36:26.651Z,100.00
2024-02-24T00:38:54.563Z,100.00
2024-02-24T00:41:23.095Z,100.00
2024-02-24T00:43:53.358Z,100.00
2024-02-24T00:46:21.756Z,100.00
2024-02-24T00:48:50.382Z,100.00
2024-02-24T00:51:18.426Z,100.00
2024-02-24T00:53:46.487Z,100.00
2024-02-24T00:56:14.832Z,100.00
2024-02-24T00:58:42.778Z,100.00
2024-02-24T01:01:10.820Z,100.00
2024-02-24T01:03:38.937Z,100.00
2024-02-24T01:06:07.229Z,100.00
2024-02-24T01:08:35.092Z,100.00
2024-02-24T01:11:03.294Z,100.00
2024-02-24T01:13:31.905Z,100.00
2024-02-24T01:15:59.931Z,100.00
2024-02-24T01:18:29.591Z,100.00
2024-02-24T01:20:57.765Z,100.00
2024-02-24T01:23:26.101Z,100.00
2024-02-24T01:25:53.979Z,100.00
2024-02-24T01:28:22.374Z,100.00
2024-02-24T01:30:50.431Z,100.00
2024-02-24T01:33:19.515Z,100.00
2024-02-24T01:35:47.634Z,100.00
2024-02-24T01:38:15.662Z,100.00
2024-02-24T01:40:43.651Z,100.00
2024-02-24T01:43:28.325Z,100.00
2024-02-24T01:45:58.141Z,100.00
2024-02-24T01:48:26.788Z,100.00
2024-02-24T01:50:56.075Z,100.00
2024-02-24T01:53:25.106Z,100.00
2024-02-24T01:55:54.852Z,100.00
2024-02-24T01:58:22.970Z,100.00
2024-02-24T02:00:51.422Z,100.00
2024-02-24T02:03:19.334Z,100.00
2024-02-24T02:05:49.440Z,100.00
2024-02-24T02:08:18.098Z,100.00
2024-02-24T02:10:48.278Z,100.00
2024-02-24T02:13:16.695Z,100.00
2024-02-24T02:15:45.611Z,100.00
2024-02-24T02:18:14.110Z,100.00
2024-02-24T02:20:42.320Z,100.00
2024-02-24T02:23:10.931Z,100.00
2024-02-24T02:25:39.628Z,100.00
2024-02-24T02:28:08.312Z,100.00
2024-02-24T02:30:36.383Z,100.00
2024-02-24T02:33:10.246Z,100.00
2024-02-24T02:35:39.651Z,100.00
2024-02-24T02:38:10.480Z,100.00
2024-02-24T02:40:38.945Z,100.00
2024-02-24T02:43:07.059Z,100.00
2024-02-24T02:45:34.953Z,100.00
2024-02-24T02:48:04.335Z,100.00
2024-02-24T02:50:32.484Z,100.00
2024-02-24T02:53:00.555Z,100.00
2024-02-24T02:55:28.615Z,100.00
2024-02-24T02:57:56.872Z,100.00
2024-02-24T03:00:25.266Z,100.00
2024-02-24T03:02:53.722Z,100.00
2024-02-24T03:05:22.294Z,100.00
2024-02-24T03:07:50.686Z,100.00
2024-02-24T03:10:19.034Z,100.00
2024-02-24T03:12:47.136Z,100.00
2024-02-24T03:15:15.167Z,100.00
2024-02-24T03:17:43.671Z,100.00
2024-02-24T03:20:12.195Z,100.00
2024-02-24T03:22:40.514Z,100.00
2024-02-24T03:25:09.421Z,100.00
2024-02-24T03:27:39.077Z,100.00
2024-02-24T03:30:08.184Z,100.00
2024-02-24T03:32:36.185Z,100.00
2024-02-24T03:35:05.180Z,100.00
2024-02-24T03:37:33.214Z,100.00
2024-02-24T03:40:01.689Z,100.00
2024-02-24T03:42:29.539Z,100.00
2024-02-24T03:44:57.976Z,100.00
2024-02-24T03:47:26.418Z,100.00
2024-02-24T03:49:54.503Z,100.00
2024-02-24T03:52:22.942Z,100.00
2024-02-24T03:54:51.217Z,100.00
2024-02-24T03:57:19.607Z,100.00
2024-02-24T03:59:48.076Z,100.00
2024-02-24T04:02:17.204Z,100.00
2024-02-24T04:04:45.518Z,100.00
2024-02-24T04:07:14.282Z,100.00
2024-02-24T04:09:42.335Z,100.00
2024-02-24T04:12:10.345Z,100.00
2024-02-24T04:14:38.809Z,100.00
2024-02-24T04:17:06.798Z,100.00
2024-02-24T04:19:34.761Z,100.00
2024-02-24T04:22:03.171Z,100.00
2024-02-24T04:24:31.710Z,100.00
2024-02-24T04:27:00.049Z,100.00
2024-02-24T04:29:28.520Z,100.00
2024-02-24T04:31:57.108Z,100.00
2024-02-24T04:34:25.464Z,100.00
2024-02-24T04:36:53.791Z,100.00
2024-02-24T04:39:22.128Z,100.00
2024-02-24T04:41:51.205Z,100.00
2024-02-24T04:44:19.854Z,100.00
2024-02-24T04:46:48.368Z,100.00
2024-02-24T04:49:16.749Z,100.00
2024-02-24T04:51:45.315Z,100.00
2024-02-24T04:54:14.909Z,100.00
2024-02-24T04:56:43.182Z,100.00
2024-02-24T04:59:11.262Z,100.00
2024-02-24T05:01:39.728Z,100.00
2024-02-24T05:04:07.754Z,100.00
2024-02-24T05:06:36.131Z,100.00
2024-02-24T05:09:06.379Z,100.00
2024-02-24T05:11:34.551Z,100.00
2024-02-24T05:14:02.624Z,100.00
2024-02-24T05:16:30.512Z,100.00
2024-02-24T05:18:58.490Z,100.00
2024-02-24T05:21:26.405Z,100.00
2024-02-24T05:23:55.017Z,100.00
2024-02-24T05:26:28.378Z,100.00
2024-02-24T05:28:57.889Z,100.00
2024-02-24T05:31:25.852Z,100.00
2024-02-24T05:33:55.018Z,100.00
2024-02-24T05:36:23.597Z,100.00
2024-02-24T05:38:51.943Z,100.00
2024-02-24T05:41:19.845Z,100.00
2024-02-24T05:43:47.830Z,100.00
2024-02-24T05:46:17.605Z,100.00
2024-02-24T05:48:46.972Z,100.00
2024-02-24T05:51:17.948Z,100.00
2024-02-24T05:53:46.492Z,100.00
2024-02-24T05:56:15.157Z,100.00
2024-02-24T05:58:43.259Z,100.00
2024-02-24T06:01:11.238Z,100.00
2024-02-24T06:03:39.736Z,100.00
2024-02-24T06:06:09.242Z,100.00
2024-02-24T06:08:38.030Z,100.00
2024-02-24T06:11:07.339Z,100.00
2024-02-24T06:13:36.057Z,100.00
2024-02-24T06:16:05.068Z,100.00
2024-02-24T06:18:33.625Z,100.00
2024-02-24T06:21:02.896Z,100.00
2024-02-24T06:23:31.514Z,100.00
2024-02-24T06:25:59.935Z,100.00
2024-02-24T06:28:28.378Z,100.00
2024-02-24T06:30:56.963Z,100.00
2024-02-24T06:33:25.709Z,100.00
2024-02-24T06:35:54.342Z,100.00
2024-02-24T06:38:22.765Z,100.00
2024-02-24T06:40:50.653Z,100.00
2024-02-24T06:43:18.618Z,100.00
2024-02-24T06:45:46.974Z,100.00
2024-02-24T06:48:16.893Z,100.00
2024-02-24T06:50:45.376Z,100.00
2024-02-24T06:53:14.055Z,100.00
2024-02-24T06:55:42.483Z,100.00
2024-02-24T06:58:10.390Z,100.00
2024-02-24T07:00:38.354Z,100.00
2024-02-24T07:03:06.461Z,100.00
2024-02-24T07:05:34.626Z,100.00
2024-02-24T07:08:04.186Z,100.00
2024-02-24T07:10:32.304Z,100.00
2024-02-24T07:13:00.300Z,100.00
2024-02-24T07:15:28.237Z,100.00
2024-02-24T07:17:56.200Z,100.00
2024-02-24T07:20:24.325Z,100.00
2024-02-24T07:22:52.254Z,100.00
2024-02-24T07:25:20.101Z,100.00
2024-02-24T07:27:48.084Z,100.00
2024-02-24T07:30:15.983Z,100.00
2024-02-24T07:32:45.787Z,100.00
2024-02-24T07:35:14.937Z,100.00
2024-02-24T07:37:42.941Z,100.00
2024-02-24T07:40:11.850Z,100.00
2024-02-24T07:42:39.841Z,100.00
2024-02-24T07:45:08.771Z,100.00
2024-02-24T07:47:36.851Z,100.00
2024-02-24T07:50:06.075Z,100.00
2024-02-24T07:52:33.952Z,100.00
2024-02-24T07:55:03.277Z,100.00
2024-02-24T07:57:31.218Z,100.00
2024-02-24T07:59:59.063Z,100.00
2024-02-24T08:02:27.293Z,100.00
2024-02-24T08:04:55.325Z,100.00
2024-02-24T08:07:23.296Z,100.00
2024-02-24T08:09:51.213Z,100.00
2024-02-24T08:12:19.180Z,100.00
2024-02-24T08:14:47.113Z,100.00
2024-02-24T08:17:15.210Z,100.00
2024-02-24T08:19:43.887Z,100.00
2024-02-24T08:22:12.382Z,100.00
2024-02-24T08:24:40.342Z,100.00
2024-02-24T08:27:08.454Z,100.00
2024-02-24T08:29:36.421Z,100.00
2024-02-24T08:32:05.134Z,100.00
2024-02-24T08:34:33.057Z,100.00
2024-02-24T08:37:01.001Z,100.00
2024-02-24T08:39:30.586Z,100.00
2024-02-24T08:42:02.931Z,100.00
2024-02-24T08:44:31.071Z,100.00
2024-02-24T08:46:59.135Z,100.00
2024-02-24T08:49:27.155Z,100.00
2024-02-24T08:51:55.054Z,100.00
2024-02-24T08:54:23.461Z,100.00
2024-02-24T08:56:51.576Z,100.00
2024-02-24T08:59:19.528Z,100.00
2024-02-24T09:01:47.496Z,100.00
2024-02-24T09:04:15.367Z,100.00
2024-02-24T09:06:43.407Z,100.00
2024-02-24T09:09:15.715Z,100.00
2024-02-24T09:11:45.219Z,100.00
2024-02-24T09:14:14.509Z,100.00
2024-02-24T09:16:43.145Z,100.00
2024-02-24T09:19:11.280Z,100.00
2024-02-24T09:21:39.460Z,100.00
2024-02-24T09:24:07.791Z,100.00
2024-02-24T09:26:35.818Z,100.00
2024-02-24T09:29:03.856Z,100.00
2024-02-24T09:31:31.863Z,100.00
2024-02-24T09:33:59.853Z,100.00
2024-02-24T09:36:28.165Z,100.00
2024-02-24T09:38:56.228Z,100.00
2024-02-24T09:41:24.254Z,100.00
2024-02-24T09:43:52.470Z,100.00
2024-02-24T09:46:20.825Z,100.00
2024-02-24T09:48:49.958Z,100.00
2024-02-24T09:51:18.210Z,100.00
2024-02-24T09:53:46.184Z,100.00
2024-02-24T09:56:16.850Z,100.00
2024-02-24T09:58:45.436Z,100.00
2024-02-24T10:01:13.930Z,100.00
2024-02-24T10:03:43.793Z,100.00
2024-02-24T10:06:14.493Z,100.00
2024-02-24T10:08:42.516Z,100.00
2024-02-24T10:11:14.529Z,100.00
2024-02-24T10:13:45.352Z,100.00
2024-02-24T10:16:13.911Z,100.00
2024-02-24T10:18:42.500Z,100.00
2024-02-24T10:21:10.502Z,100.00
2024-02-24T10:23:38.474Z,100.00
2024-02-24T10:26:08.410Z,100.00
2024-02-24T10:28:36.699Z,100.00
2024-02-24T10:31:05.422Z,100.00
2024-02-24T10:33:38.051Z,100.00
2024-02-24T10:36:09.430Z,100.00
2024-02-24T10:38:45.390Z,100.00
2024-02-24T10:41:23.520Z,99.83
2024-02-24T10:44:02.407Z,97.93
2024-02-24T10:46:38.843Z,95.33
2024-02-24T10:49:06.936Z,96.89
2024-02-24T10:51:38.104Z,94.26
2024-02-24T10:54:23.236Z,98.15
2024-02-24T10:57:01.080Z,96.09
2024-02-24T10:59:31.325Z,95.70
2024-02-24T11:02:03.029Z,97.17
2024-02-24T11:04:36.754Z,93.17
2024-02-24T11:07:16.842Z,93.63
2024-02-24T11:09:49.742Z,96.39
2024-02-24T11:12:20.959Z,98.99
2024-02-24T11:14:50.194Z,99.59
2024-02-24T11:17:54.046Z,94.08
2024-02-24T11:20:34.494Z,97.00
2024-02-24T11:23:22.744Z,96.10
2024-02-24T11:26:14.567Z,97.78
2024-02-24T11:28:48.554Z,98.32
2024-02-24T11:31:28.102Z,95.06
2024-02-24T11:34:04.135Z,93.28
2024-02-24T11:36:34.971Z,88.85
2024-02-24T11:39:08.334Z,83.69
2024-02-24T11:41:38.227Z,87.48
2024-02-24T11:44:06.349Z,89.58
2024-02-24T11:46:34.669Z,86.68
2024-02-24T11:49:04.195Z,86.62
2024-02-24T11:51:32.328Z,88.48
2024-02-24T11:54:00.661Z,86.04
2024-02-24T11:56:28.780Z,81.77
2024-02-24T11:58:56.963Z,84.52
2024-02-24T12:01:25.223Z,85.07
2024-02-24T12:03:54.966Z,86.15
2024-02-24T12:06:25.637Z,81.88
2024-02-24T12:08:55.012Z,83.61
2024-02-24T12:11:24.548Z,85.02
2024-02-24T12:13:53.420Z,83.69
2024-02-24T12:16:24.394Z,84.05
2024-02-24T12:18:52.422Z,85.17
2024-02-24T12:21:20.494Z,83.37
2024-02-24T12:23:48.502Z,80.35
2024-02-24T12:26:18.539Z,83.50
2024-02-24T12:28:48.428Z,81.76
2024-02-24T12:31:16.712Z,78.91
2024-02-24T12:33:47.073Z,73.64
2024-02-24T12:36:17.074Z,66.93
2024-02-24T12:38:46.291Z,67.43
2024-02-24T12:41:14.482Z,65.20
2024-02-24T12:43:43.153Z,64.83
2024-02-24T12:46:11.321Z,62.51
2024-02-24T12:48:42.464Z,62.32
2024-02-24T12:51:12.541Z,60.34
2024-02-24T12:53:42.617Z,62.91
2024-02-24T12:56:10.782Z,62.42
2024-02-24T12:58:40.014Z,60.11
2024-02-24T13:01:09.270Z,59.47
2024-02-24T13:03:37.748Z,59.14
2024-02-24T13:06:06.117Z,58.99
2024-02-24T13:08:34.318Z,59.07
2024-02-24T13:11:02.544Z,57.61
2024-02-24T13:13:30.592Z,58.32
2024-02-24T13:15:58.504Z,58.63
2024-02-24T13:18:28.539Z,57.68
2024-02-24T13:20:56.767Z,57.30
2024-02-24T13:23:24.788Z,59.35
2024-02-24T13:25:52.740Z,57.21
2024-02-24T13:28:20.660Z,57.76
2024-02-24T13:30:48.573Z,56.47
2024-02-24T13:33:16.775Z,57.11
2024-02-24T13:35:45.036Z,58.04
2024-02-24T13:38:13.181Z,57.49
2024-02-24T13:40:42.933Z,56.97
2024-02-24T13:43:12.898Z,54.33
2024-02-24T13:45:41.184Z,54.38
2024-02-24T13:48:09.369Z,53.79
2024-02-24T13:50:37.458Z,54.01
2024-02-24T13:53:05.732Z,55.67
2024-02-24T13:55:33.627Z,53.56
2024-02-24T13:58:04.107Z,53.29
2024-02-24T14:00:32.139Z,55.73
2024-02-24T14:03:00.819Z,54.98
2024-02-24T14:05:30.412Z,53.18
2024-02-24T14:07:58.646Z,55.50
2024-02-24T14:10:26.555Z,53.62
2024-02-24T14:12:54.464Z,54.92
2024-02-24T14:15:23.207Z,54.33
2024-02-24T14:17:51.259Z,51.49
2024-02-24T14:20:25.457Z,53.06
2024-02-24T14:22:56.339Z,52.60
2024-02-24T14:25:24.709Z,55.87
2024-02-24T14:27:53.089Z,54.13
2024-02-24T14:30:21.338Z,53.88
2024-02-24T14:32:49.428Z,55.85
2024-02-24T14:35:25.469Z,54.95
2024-02-24T14:37:53.647Z,55.00
2024-02-24T14:40:22.775Z,56.33
2024-02-24T14:42:50.938Z,55.04
2024-02-24T14:45:19.033Z,55.90
2024-02-24T14:47:47.584Z,56.11
2024-02-24T14:50:15.697Z,56.61
2024-02-24T14:52:43.681Z,56.59
2024-02-24T14:55:12.840Z,56.73
2024-02-24T14:57:40.915Z,56.95
2024-02-24T15:00:16.115Z,57.15
2024-02-24T15:02:50.756Z,58.27
2024-02-24T15:05:28.206Z,59.38
2024-02-24T15:07:56.684Z,59.61
2024-02-24T15:10:24.806Z,58.52
2024-02-24T15:12:52.767Z,58.82
2024-02-24T15:15:20.616Z,58.63
2024-02-24T15:17:49.266Z,59.81
2024-02-24T15:20:17.577Z,58.77
2024-02-24T15:22:45.612Z,57.92
2024-02-24T15:25:13.501Z,57.37
2024-02-24T15:27:41.426Z,55.99
2024-02-24T15:30:10.971Z,58.51
2024-02-24T15:32:39.350Z,60.04
2024-02-24T15:35:08.232Z,61.81
2024-02-24T15:37:36.426Z,63.83
2024-02-24T15:40:09.054Z,63.71
2024-02-24T15:42:37.247Z,64.08
2024-02-24T15:45:06.041Z,64.19
2024-02-24T15:47:34.020Z,64.93
2024-02-24T15:50:02.530Z,65.66
2024-02-24T15:52:30.444Z,65.74
2024-02-24T15:54:58.788Z,67.07
2024-02-24T15:57:26.606Z,67.27
2024-02-24T15:59:54.677Z,68.35
2024-02-24T16:02:22.692Z,67.20
2024-02-24T16:04:50.980Z,69.06
2024-02-24T16:07:19.083Z,68.73
2024-02-24T16:09:47.115Z,68.73
2024-02-24T16:12:15.091Z,68.59
2024-02-24T16:14:43.146Z,68.96
2024-02-24T16:17:11.433Z,69.84
2024-02-24T16:19:40.412Z,69.67
2024-02-24T16:22:08.344Z,69.67
2024-02-24T16:24:38.261Z,70.31
2024-02-24T16:27:06.275Z,70.64
2024-02-24T16:29:35.208Z,71.62
2024-02-24T16:32:06.162Z,71.32
2024-02-24T16:34:36.490Z,72.77
2024-02-24T16:37:04.875Z,72.87
2024-02-24T16:39:33.563Z,73.15
2024-02-24T16:42:02.183Z,72.23
2024-02-24T16:44:30.373Z,71.96
2024-02-24T16:46:58.429Z,71.58
2024-02-24T16:49:26.320Z,72.50
2024-02-24T16:51:54.662Z,72.14
2024-02-24T16:54:24.097Z,71.82
2024-02-24T16:56:52.076Z,71.13
2024-02-24T16:59:20.079Z,71.37
2024-02-24T17:01:48.617Z,71.68
2024-02-24T17:04:16.912Z,72.25
2024-02-24T17:06:45.135Z,72.17
2024-02-24T17:09:13.161Z,72.38
2024-02-24T17:11:41.882Z,72.25
2024-02-24T17:14:09.958Z,72.34
2024-02-24T17:16:37.999Z,72.25
2024-02-24T17:19:05.988Z,73.11
2024-02-24T17:21:34.085Z,73.07
2024-02-24T17:24:02.077Z,73.54
2024-02-24T17:26:30.186Z,73.63
2024-02-24T17:28:58.880Z,73.37
2024-02-24T17:31:26.953Z,74.62
2024-02-24T17:33:55.011Z,74.91
2024-02-24T17:36:23.166Z,74.88
2024-02-24T17:38:51.105Z,74.77
2024-02-24T17:41:20.050Z,75.64
2024-02-24T17:43:48.264Z,76.09
2024-02-24T17:46:17.322Z,76.56
2024-02-24T17:48:45.477Z,76.31
2024-02-24T17:51:16.001Z,75.94
2024-02-24T17:53:44.267Z,76.39
2024-02-24T17:56:12.192Z,76.97
2024-02-24T17:58:47.123Z,77.50
2024-02-24T18:01:16.530Z,77.82
2024-02-24T18:03:44.568Z,77.98
2024-02-24T18:06:12.696Z,78.27
2024-02-24T18:08:40.626Z,78.19
2024-02-24T18:11:10.811Z,78.34
2024-02-24T18:13:39.309Z,78.42
2024-02-24T18:16:09.625Z,78.80
2024-02-24T18:18:38.935Z,78.42
2024-02-24T18:21:14.389Z,79.27
2024-02-24T18:23:42.390Z,79.40
2024-02-24T18:26:10.359Z,79.56
2024-02-24T18:28:38.294Z,79.42
2024-02-24T18:31:06.519Z,79.53
2024-02-24T18:33:34.485Z,79.78
2024-02-24T18:36:03.882Z,79.45
2024-02-24T18:38:33.005Z,79.27
2024-02-24T18:41:01.206Z,78.83
2024-02-24T18:43:29.142Z,78.90
2024-02-24T18:45:58.553Z,79.33
2024-02-24T18:48:26.770Z,79.25
2024-02-24T18:50:54.921Z,79.25
2024-02-24T18:53:23.523Z,79.86
2024-02-24T18:55:51.458Z,80.22
2024-02-24T18:58:19.293Z,80.03
2024-02-24T19:00:47.545Z,80.28
2024-02-24T19:03:15.624Z,80.74
2024-02-24T19:05:43.770Z,80.65
2024-02-24T19:08:12.092Z,80.82
2024-02-24T19:10:40.034Z,80.63
2024-02-24T19:13:08.220Z,80.52
2024-02-24T19:15:36.169Z,80.75
2024-02-24T19:18:05.424Z,81.28
2024-02-24T19:20:33.401Z,81.36
2024-02-24T19:23:01.576Z,81.34
2024-02-24T19:25:29.538Z,81.56
2024-02-24T19:27:57.495Z,81.74
2024-02-24T19:30:25.574Z,81.59
2024-02-24T19:32:53.597Z,81.61
2024-02-24T19:35:21.601Z,81.84
2024-02-24T19:37:50.044Z,81.79
2024-02-24T19:40:18.044Z,81.52
2024-02-24T19:42:45.998Z,82.19
2024-02-24T19:45:14.592Z,82.11
2024-02-24T19:47:42.796Z,81.93
2024-02-24T19:50:10.974Z,82.34
2024-02-24T19:52:39.135Z,82.62
2024-02-24T19:55:08.445Z,82.62
2024-02-24T19:57:36.677Z,82.94
2024-02-24T20:00:05.562Z,83.38
2024-02-24T20:02:39.003Z,83.61
2024-02-24T20:05:09.188Z,83.54
2024-02-24T20:07:37.934Z,83.36
2024-02-24T20:10:06.407Z,83.45
2024-02-24T20:12:35.732Z,83.82
2024-02-24T20:15:04.311Z,83.63
2024-02-24T20:17:32.486Z,83.27
2024-02-24T20:20:00.953Z,83.43
2024-02-24T20:22:30.204Z,83.45
2024-02-24T20:24:58.044Z,83.46
2024-02-24T20:27:27.595Z,83.34
2024-02-24T20:29:55.576Z,83.04
2024-02-24T20:32:23.762Z,82.88
2024-02-24T20:34:51.922Z,83.37
2024-02-24T20:37:19.805Z,83.33
2024-02-24T20:39:47.701Z,83.18
2024-02-24T20:42:15.943Z,83.19
2024-02-24T20:44:43.850Z,83.05
2024-02-24T20:47:11.750Z,83.08
2024-02-24T20:49:39.740Z,83.25
2024-02-24T20:52:08.555Z,83.53
2024-02-24T20:54:39.635Z,83.49
2024-02-24T20:57:08.327Z,83.17
2024-02-24T20:59:36.372Z,82.77
2024-02-24T21:02:04.709Z,82.54
2024-02-24T21:04:33.213Z,82.87
2024-02-24T21:07:02.770Z,82.90
2024-02-24T21:09:31.606Z,82.93
2024-02-24T21:11:59.786Z,82.78
2024-02-24T21:14:28.378Z,82.72
2024-02-24T21:16:56.679Z,82.91
2024-02-24T21:19:24.666Z,82.98
2024-02-24T21:21:55.671Z,83.25
2024-02-24T21:24:23.748Z,83.79
2024-02-24T21:26:51.783Z,84.33
2024-02-24T21:29:19.873Z,83.90
2024-02-24T21:31:51.684Z,84.77
2024-02-24T21:34:21.730Z,84.85
2024-02-24T21:36:49.713Z,85.21
2024-02-24T21:39:17.570Z,85.24
2024-02-24T21:41:45.562Z,84.86
2024-02-24T21:44:13.902Z,85.15
2024-02-24T21:46:41.782Z,85.34
2024-02-24T21:49:09.996Z,85.40
2024-02-24T21:51:38.483Z,85.46
2024-02-24T21:54:10.280Z,85.25
2024-02-24T21:56:38.741Z,85.76
2024-02-24T21:59:06.664Z,85.74
2024-02-24T22:01:34.665Z,86.02
2024-02-24T22:04:04.510Z,85.91
2024-02-24T22:06:32.727Z,85.97
2024-02-24T22:09:01.008Z,86.05
2024-02-24T22:11:32.884Z,86.08
2024-02-24T22:14:01.400Z,86.57
2024-02-24T22:16:30.005Z,86.47
2024-02-24T22:18:58.192Z,86.27
2024-02-24T22:21:27.912Z,86.74
2024-02-24T22:23:56.325Z,86.92
2024-02-24T22:26:25.433Z,87.22
2024-02-24T22:28:53.805Z,87.18
2024-02-24T22:31:21.926Z,87.82
2024-02-24T22:33:50.748Z,87.32
2024-02-24T22:36:21.073Z,87.28
2024-02-24T22:38:52.984Z,87.33
2024-02-24T22:41:25.280Z,87.65
2024-02-24T22:43:53.342Z,88.07
2024-02-24T22:46:21.780Z,88.00
2024-02-24T22:48:50.182Z,87.35
2024-02-24T22:51:19.371Z,86.99
2024-02-24T22:53:47.320Z,86.95
2024-02-24T22:56:15.316Z,87.53
2024-02-24T22:58:46.644Z,87.79
2024-02-24T23:01:17.897Z,88.11
2024-02-24T23:03:45.893Z,88.03
2024-02-24T23:06:13.992Z,87.94
2024-02-24T23:08:42.126Z,87.74
2024-02-24T23:11:11.559Z,88.09
2024-02-24T23:13:42.462Z,88.06
2024-02-24T23:16:10.341Z,87.82
2024-02-24T23:18:38.382Z,88.06
2024-02-24T23:21:06.740Z,88.09
2024-02-24T23:23:34.864Z,88.18
2024-02-24T23:26:03.335Z,88.09
2024-02-24T23:28:31.263Z,87.89
2024-02-24T23:31:00.104Z,87.99
2024-02-24T23:33:28.127Z,88.44
2024-02-24T23:35:56.369Z,88.60
2024-02-24T23:38:24.385Z,89.17
2024-02-24T23:40:52.321Z,89.35
2024-02-24T23:43:20.248Z,89.21
2024-02-24T23:45:48.445Z,89.51
2024-02-24T23:48:16.430Z,89.69
2024-02-24T23:50:44.709Z,90.17
2024-02-24T23:53:12.686Z,90.29
2024-02-24T23:55:40.551Z,89.81
2024-02-24T23:58:08.709Z,89.97
